createdAt,value
2022-09-24T00:00:11.880Z,96375.75
2022-09-24T00:02:39.976Z,96379.94
2022-09-24T00:05:08.697Z,96374.66
2022-09-24T00:07:38.041Z,96372.97
2022-09-24T00:10:06.937Z,96366.84
2022-09-24T00:12:34.929Z,96370.22
2022-09-24T00:15:03.504Z,96372.97
2022-09-24T00:17:31.590Z,96370.47
2022-09-24T00:19:59.623Z,96371.31
2022-09-24T00:22:27.591Z,96369.38
2022-09-24T00:25:14.344Z,96363.25
2022-09-24T00:27:42.371Z,96359.91
2022-09-24T00:30:11.197Z,96361.25
2022-09-24T00:32:39.131Z,96352.47
2022-09-24T00:35:07.889Z,96354.28
2022-09-24T00:37:35.913Z,96357.06
2022-09-24T00:40:06.240Z,96352.59
2022-09-24T00:42:34.381Z,96349.94
2022-09-24T00:45:05.331Z,96344.81
2022-09-24T00:47:37.179Z,96349.50
2022-09-24T00:50:11.722Z,96341.03
2022-09-24T00:52:44.757Z,96334.03
2022-09-24T00:55:15.442Z,96331.78
2022-09-24T00:57:44.646Z,96325.94
2022-09-24T01:00:13.991Z,96332.31
2022-09-24T01:02:46.382Z,96334.66
2022-09-24T01:05:14.817Z,96329.09
2022-09-24T01:07:46.601Z,96333.66
2022-09-24T01:10:37.304Z,96324.44
2022-09-24T01:13:15.012Z,96325.16
2022-09-24T01:15:50.180Z,96313.41
2022-09-24T01:18:26.328Z,96313.91
2022-09-24T01:24:04.873Z,96315.00
2022-09-24T01:27:05.816Z,96306.63
2022-09-24T01:29:43.775Z,96301.75
2022-09-24T01:32:20.242Z,96304.25
2022-09-24T01:34:53.554Z,96290.06
2022-09-24T01:37:25.187Z,96289.63
2022-09-24T01:39:56.205Z,96282.91
2022-09-24T01:42:27.134Z,96290.13
2022-09-24T01:44:58.329Z,96282.47
2022-09-24T01:47:35.008Z,96287.75
2022-09-24T01:50:05.832Z,96278.13
2022-09-24T01:52:40.821Z,96282.47
2022-09-24T01:55:12.296Z,96265.09
2022-09-24T01:57:44.142Z,96267.00
2022-09-24T02:00:16.351Z,96274.34
2022-09-24T02:02:47.633Z,96268.09
2022-09-24T02:05:24.977Z,96266.69
2022-09-24T02:07:59.563Z,96261.41
2022-09-24T02:10:33.745Z,96260.56
2022-09-24T02:13:06.630Z,96254.47
2022-09-24T02:15:40.873Z,96263.31
2022-09-24T02:18:11.629Z,96256.72
2022-09-24T02:20:42.590Z,96270.03
2022-09-24T02:23:12.155Z,96272.78
2022-09-24T02:25:44.174Z,96267.88
2022-09-24T02:28:12.275Z,96277.50
2022-09-24T02:30:47.103Z,96259.75
2022-09-24T02:33:34.391Z,96254.19
2022-09-24T02:36:03.417Z,96246.38
2022-09-24T02:38:31.456Z,96240.88
2022-09-24T02:40:59.774Z,96248.91
2022-09-24T02:43:28.064Z,96247.47
2022-09-24T02:45:57.385Z,96259.22
2022-09-24T02:48:25.364Z,96269.19
2022-09-24T02:50:53.887Z,96267.41
2022-09-24T02:53:21.873Z,96257.94
2022-09-24T02:55:49.929Z,96270.03
2022-09-24T02:58:17.997Z,96256.72
2022-09-24T03:00:45.981Z,96262.00
2022-09-24T03:03:15.457Z,96260.19
2022-09-24T03:05:43.609Z,96252.25
2022-09-24T03:08:11.763Z,96242.66
2022-09-24T03:10:39.735Z,96237.25
2022-09-24T03:13:07.847Z,96242.25
2022-09-24T03:15:35.841Z,96236.97
2022-09-24T03:18:04.268Z,96233.97
2022-09-24T03:20:33.625Z,96242.03
2022-09-24T03:23:01.673Z,96225.09
2022-09-24T03:25:29.721Z,96226.75
2022-09-24T03:27:57.714Z,96230.88
2022-09-24T03:30:57.856Z,96235.88
2022-09-24T03:33:25.920Z,96235.66
2022-09-24T03:35:58.278Z,96228.56
2022-09-24T03:38:26.416Z,96218.69
2022-09-24T03:40:54.478Z,96224.94
2022-09-24T03:43:22.607Z,96216.19
2022-09-24T03:45:50.553Z,96217.88
2022-09-24T03:48:18.645Z,96223.72
2022-09-24T03:50:48.201Z,96217.59
2022-09-24T03:53:18.422Z,96224.53
2022-09-24T03:55:48.312Z,96226.50
2022-09-24T03:58:17.073Z,96224.69
2022-09-24T04:00:45.239Z,96227.06
2022-09-24T04:03:13.234Z,96222.88
2022-09-24T04:05:41.271Z,96227.34
2022-09-24T04:08:09.266Z,96218.59
2022-09-24T04:10:38.612Z,96218.16
2022-09-24T04:13:06.602Z,96218.16
2022-09-24T04:15:34.574Z,96214.69
2022-09-24T04:18:02.541Z,96213.75
2022-09-24T04:20:31.458Z,96211.09
2022-09-24T04:23:00.080Z,96217.09
2022-09-24T04:25:30.622Z,96210.25
2022-09-24T04:28:01.938Z,96212.63
2022-09-24T04:30:30.981Z,96210.13
2022-09-24T04:33:00.843Z,96203.50
2022-09-24T04:35:30.896Z,96200.00
2022-09-24T04:38:00.359Z,96192.06
2022-09-24T04:40:28.911Z,96194.00
2022-09-24T04:42:56.964Z,96202.63
2022-09-24T04:45:26.933Z,96200.00
2022-09-24T04:47:57.519Z,96191.25
2022-09-24T04:50:26.806Z,96190.41
2022-09-24T04:52:55.115Z,96186.78
2022-09-24T04:55:23.238Z,96190.53
2022-09-24T04:57:51.393Z,96190.41
2022-09-24T05:00:21.954Z,96190.41
2022-09-24T05:02:57.542Z,96187.75
2022-09-24T05:05:25.914Z,96190.13
2022-09-24T05:07:56.692Z,96202.41
2022-09-24T05:10:25.137Z,96203.34
2022-09-24T05:12:53.168Z,96213.09
2022-09-24T05:15:21.264Z,96214.06
2022-09-24T05:17:49.564Z,96205.16
2022-09-24T05:20:19.551Z,96204.16
2022-09-24T05:22:49.297Z,96210.44
2022-09-24T05:25:19.426Z,96201.69
2022-09-24T05:27:46.892Z,96207.53
2022-09-24T05:30:16.114Z,96207.69
2022-09-24T05:32:44.292Z,96211.00
2022-09-24T05:35:13.757Z,96217.97
2022-09-24T05:37:43.158Z,96217.00
2022-09-24T05:40:28.998Z,96218.69
2022-09-24T05:43:02.354Z,96221.06
2022-09-24T05:45:30.553Z,96214.94
2022-09-24T05:48:00.063Z,96226.06
2022-09-24T05:50:28.564Z,96231.09
2022-09-24T05:52:57.907Z,96232.69
2022-09-24T05:55:30.000Z,96220.28
2022-09-24T05:58:04.328Z,96217.25
2022-09-24T06:00:32.558Z,96220.63
2022-09-24T06:03:08.967Z,96225.63
2022-09-24T06:05:37.023Z,96222.47
2022-09-24T06:08:08.698Z,96230.94
2022-09-24T06:10:37.463Z,96229.84
2022-09-24T06:13:05.524Z,96221.38
2022-09-24T06:15:35.001Z,96229.91
2022-09-24T06:18:02.939Z,96242.84
2022-09-24T06:20:30.983Z,96235.34
2022-09-24T06:22:59.116Z,96236.59
2022-09-24T06:25:28.573Z,96244.13
2022-09-24T06:28:00.288Z,96249.19
2022-09-24T06:30:29.427Z,96250.56
2022-09-24T06:33:04.481Z,96244.16
2022-09-24T06:35:32.842Z,96249.31
2022-09-24T06:38:00.874Z,96249.19
2022-09-24T06:40:35.559Z,96244.47
2022-09-24T06:43:05.184Z,96253.94
2022-09-24T06:45:33.420Z,96260.50
2022-09-24T06:48:03.280Z,96253.13
2022-09-24T06:50:34.317Z,96252.88
2022-09-24T06:53:05.430Z,96243.81
2022-09-24T06:55:35.403Z,96250.50
2022-09-24T06:58:05.327Z,96251.91
2022-09-24T07:00:33.850Z,96250.78
2022-09-24T07:03:02.282Z,96251.38
2022-09-24T07:05:30.345Z,96255.41
2022-09-24T07:07:58.698Z,96256.78
2022-09-24T07:10:27.526Z,96248.44
2022-09-24T07:12:57.151Z,96248.84
2022-09-24T07:15:25.852Z,96259.31
2022-09-24T07:17:56.711Z,96260.72
2022-09-24T07:20:28.115Z,96264.91
2022-09-24T07:22:57.064Z,96267.13
2022-09-24T07:25:25.545Z,96270.19
2022-09-24T07:27:54.120Z,96269.91
2022-09-24T07:30:23.754Z,96272.84
2022-09-24T07:32:56.304Z,96267.28
2022-09-24T07:35:25.039Z,96272.13
2022-09-24T07:38:00.953Z,96277.88
2022-09-24T07:40:30.864Z,96278.16
2022-09-24T07:43:00.192Z,96290.03
2022-09-24T07:45:31.634Z,96288.78
2022-09-24T07:48:00.889Z,96283.88
2022-09-24T07:50:30.622Z,96283.59
2022-09-24T07:52:58.890Z,96269.91
2022-09-24T07:55:27.714Z,96280.22
2022-09-24T07:57:57.510Z,96283.44
2022-09-24T08:00:26.521Z,96286.63
2022-09-24T08:02:56.661Z,96282.72
2022-09-24T08:05:25.487Z,96286.91
2022-09-24T08:07:54.470Z,96286.63
2022-09-24T08:10:23.086Z,96289.13
2022-09-24T08:12:51.879Z,96292.59
2022-09-24T08:15:22.913Z,96289.94
2022-09-24T08:17:51.856Z,96301.53
2022-09-24T08:20:23.677Z,96293.59
2022-09-24T08:22:52.024Z,96301.69
2022-09-24T08:25:20.222Z,96298.91
2022-09-24T08:27:48.886Z,96300.56
2022-09-24T08:30:17.531Z,96298.34
2022-09-24T08:32:47.928Z,96306.97
2022-09-24T08:35:16.702Z,96303.34
2022-09-24T08:37:46.958Z,96302.50
2022-09-24T08:40:21.428Z,96306.97
2022-09-24T08:42:56.438Z,96311.59
2022-09-24T08:45:42.305Z,96311.44
2022-09-24T08:48:20.296Z,96309.59
2022-09-24T08:50:58.452Z,96309.59
2022-09-24T08:53:32.647Z,96303.91
2022-09-24T08:56:01.771Z,96307.53
2022-09-24T08:58:44.164Z,96302.25
2022-09-24T09:01:23.899Z,96304.50
2022-09-24T09:03:58.074Z,96300.56
2022-09-24T09:06:47.460Z,96297.06
2022-09-24T09:09:20.277Z,96302.38
2022-09-24T09:11:52.003Z,96300.28
2022-09-24T09:14:29.260Z,96301.94
2022-09-24T09:17:02.558Z,96301.66
2022-09-24T09:19:35.579Z,96307.66
2022-09-24T09:22:12.532Z,96311.16
2022-09-24T09:24:49.094Z,96317.00
2022-09-24T09:27:18.724Z,96315.19
2022-09-24T09:29:49.997Z,96309.75
2022-09-24T09:32:29.649Z,96309.19
2022-09-24T09:35:05.135Z,96308.75
2022-09-24T09:37:42.396Z,96300.19
2022-09-24T09:40:31.839Z,96296.81
2022-09-24T09:43:03.389Z,96298.59
2022-09-24T09:45:38.037Z,96301.50
2022-09-24T09:48:12.864Z,96294.63
2022-09-24T09:50:45.715Z,96299.19
2022-09-24T09:53:22.157Z,96295.38
2022-09-24T09:55:57.059Z,96297.84
2022-09-24T09:58:27.536Z,96296.28
2022-09-24T10:01:07.118Z,96307.56
2022-09-24T10:03:47.725Z,96303.81
2022-09-24T10:06:25.240Z,96302.66
2022-09-24T10:08:54.109Z,96299.31
2022-09-24T10:11:24.047Z,96301.53
2022-09-24T10:14:03.394Z,96300.66
2022-09-24T10:16:32.212Z,96289.09
2022-09-24T10:19:01.646Z,96294.53
2022-09-24T10:21:34.643Z,96289.09
2022-09-24T10:24:04.738Z,96297.88
2022-09-24T10:26:44.744Z,96296.75
2022-09-24T10:29:33.520Z,96302.06
2022-09-24T10:32:02.867Z,96301.47
2022-09-24T10:34:31.578Z,96297.53
2022-09-24T10:37:06.062Z,96296.91
2022-09-24T10:39:37.068Z,96298.16
2022-09-24T10:42:08.053Z,96296.53
2022-09-24T10:44:38.589Z,96299.25
2022-09-24T10:47:19.413Z,96298.66
2022-09-24T10:50:07.603Z,96298.91
2022-09-24T10:52:47.365Z,96299.94
2022-09-24T10:55:39.227Z,96289.38
2022-09-24T10:58:29.056Z,96296.50
2022-09-24T11:01:10.058Z,96289.72
2022-09-24T11:03:55.567Z,96295.59
2022-09-24T11:06:43.047Z,96295.50
2022-09-24T11:09:25.492Z,96299.81
2022-09-24T11:12:08.051Z,96292.50
2022-09-24T11:14:54.717Z,96293.88
2022-09-24T11:17:34.551Z,96295.06
2022-09-24T11:20:24.330Z,96292.66
2022-09-24T11:23:12.634Z,96291.56
2022-09-24T11:25:49.138Z,96289.94
2022-09-24T11:28:36.615Z,96287.75
2022-09-24T11:31:13.561Z,96286.41
2022-09-24T11:34:05.821Z,96290.41
2022-09-24T11:36:56.564Z,96287.75
2022-09-24T11:39:39.047Z,96278.78
2022-09-24T11:42:20.739Z,96286.75
2022-09-24T11:45:15.815Z,96283.13
2022-09-24T11:48:06.772Z,96281.44
2022-09-24T11:50:50.164Z,96280.75
2022-09-24T11:53:27.281Z,96280.09
2022-09-24T11:55:59.759Z,96276.44
2022-09-24T11:58:33.362Z,96281.75
2022-09-24T12:01:10.540Z,96275.59
2022-09-24T12:03:48.270Z,96267.91
2022-09-24T12:06:21.262Z,96265.09
2022-09-24T12:08:58.315Z,96275.06
2022-09-24T12:11:31.757Z,96265.91
2022-09-24T12:14:04.839Z,96266.19
2022-09-24T12:16:38.610Z,96252.34
2022-09-24T12:19:16.609Z,96258.97
2022-09-24T12:21:47.903Z,96252.81
2022-09-24T12:24:23.483Z,96248.66
2022-09-24T12:26:57.814Z,96254.66
2022-09-24T12:30:02.552Z,96254.81
2022-09-24T12:32:56.188Z,96250.84
2022-09-24T12:35:40.256Z,96249.09
2022-09-24T12:38:14.799Z,96250.16
2022-09-24T12:41:09.165Z,96251.81
2022-09-24T12:43:44.517Z,96249.81
2022-09-24T12:46:18.242Z,96245.69
2022-09-24T12:48:48.664Z,96244.16
2022-09-24T12:51:22.402Z,96248.88
2022-09-24T12:54:00.243Z,96247.56
2022-09-24T12:56:32.011Z,96244.38
2022-09-24T12:59:00.603Z,96241.03
2022-09-24T13:01:32.234Z,96241.22
2022-09-24T13:04:24.815Z,96239.72
2022-09-24T13:06:54.970Z,96235.88
2022-09-24T13:09:35.449Z,96230.38
2022-09-24T13:12:08.004Z,96228.06
2022-09-24T13:14:36.748Z,96227.56
2022-09-24T13:17:08.101Z,96230.25
2022-09-24T13:19:41.070Z,96222.59
2022-09-24T13:22:24.108Z,96221.56
2022-09-24T13:24:54.760Z,96226.41
2022-09-24T13:27:37.648Z,96225.94
2022-09-24T13:30:17.779Z,96220.28
2022-09-24T13:32:57.148Z,96222.47
2022-09-24T13:35:29.356Z,96226.63
2022-09-24T13:38:06.812Z,96229.81
2022-09-24T13:40:41.084Z,96231.00
2022-09-24T13:43:17.131Z,96230.53
2022-09-24T13:45:46.817Z,96230.38
2022-09-24T13:48:24.174Z,96224.03
2022-09-24T13:50:54.642Z,96217.41
2022-09-24T13:53:31.706Z,96213.56
2022-09-24T13:56:04.204Z,96213.41
2022-09-24T13:58:34.201Z,96215.06
2022-09-24T14:01:08.731Z,96209.94
2022-09-24T14:03:40.949Z,96214.41
2022-09-24T14:06:13.661Z,96219.41
2022-09-24T14:08:46.304Z,96210.94
2022-09-24T14:11:17.653Z,96209.25
2022-09-24T14:13:46.665Z,96216.56
2022-09-24T14:16:19.934Z,96212.09
2022-09-24T14:18:49.366Z,96201.94
2022-09-24T14:21:23.752Z,96208.09
2022-09-24T14:23:58.974Z,96210.09
2022-09-24T14:26:32.053Z,96211.91
2022-09-24T14:29:02.898Z,96202.59
2022-09-24T14:31:31.694Z,96204.94
2022-09-24T14:34:03.152Z,96198.13
2022-09-24T14:36:31.469Z,96195.13
2022-09-24T14:39:05.040Z,96198.78
2022-09-24T14:41:35.610Z,96198.78
2022-09-24T14:44:07.850Z,96197.13
2022-09-24T14:46:39.263Z,96202.13
2022-09-24T14:49:18.237Z,96200.78
2022-09-24T14:51:54.655Z,96200.44
2022-09-24T14:54:30.870Z,96197.78
2022-09-24T14:57:11.319Z,96194.63
2022-09-24T14:59:41.836Z,96190.47
2022-09-24T15:02:19.681Z,96196.13
2022-09-24T15:04:50.340Z,96190.81
2022-09-24T15:07:22.591Z,96190.81
2022-09-24T15:09:54.171Z,96185.47
2022-09-24T15:12:30.804Z,96189.78
2022-09-24T15:15:01.183Z,96187.94
2022-09-24T15:17:32.422Z,96194.28
2022-09-24T15:20:01.634Z,96182.13
2022-09-24T15:22:31.464Z,96177.63
2022-09-24T15:25:02.510Z,96182.63
2022-09-24T15:27:32.700Z,96177.13
2022-09-24T15:30:02.686Z,96175.78
2022-09-24T15:32:33.844Z,96178.47
2022-09-24T15:35:07.777Z,96174.78
2022-09-24T15:37:38.960Z,96181.94
2022-09-24T15:40:16.918Z,96181.28
2022-09-24T15:42:45.123Z,96180.59
2022-09-24T15:45:18.375Z,96186.13
2022-09-24T15:47:46.985Z,96180.31
2022-09-24T15:50:15.509Z,96177.47
2022-09-24T15:52:48.122Z,96184.13
2022-09-24T15:55:20.381Z,96171.63
2022-09-24T15:57:49.026Z,96181.94
2022-09-24T16:00:19.436Z,96182.09
2022-09-24T16:02:50.315Z,96183.13
2022-09-24T16:05:19.776Z,96186.59
2022-09-24T16:07:48.263Z,96183.94
2022-09-24T16:10:18.560Z,96181.59
2022-09-24T16:12:46.823Z,96174.75
2022-09-24T16:15:17.242Z,96176.72
2022-09-24T16:17:45.526Z,96180.72
2022-09-24T16:20:13.873Z,96182.19
2022-09-24T16:22:42.079Z,96179.34
2022-09-24T16:25:10.808Z,96176.00
2022-09-24T16:27:41.107Z,96178.31
2022-09-24T16:30:10.077Z,96181.94
2022-09-24T16:32:38.452Z,96175.63
2022-09-24T16:35:07.861Z,96175.94
2022-09-24T16:37:36.247Z,96180.75
2022-09-24T16:40:05.207Z,96189.56
2022-09-24T16:42:34.828Z,96185.50
2022-09-24T16:45:04.934Z,96184.19
2022-09-24T16:47:33.381Z,96188.97
2022-09-24T16:50:01.653Z,96186.47
2022-09-24T16:52:31.572Z,96193.63
2022-09-24T16:54:59.719Z,96189.78
2022-09-24T16:57:28.047Z,96182.78
2022-09-24T16:59:56.299Z,96184.09
2022-09-24T17:02:26.102Z,96185.41
2022-09-24T17:04:59.413Z,96183.91
2022-09-24T17:07:31.277Z,96183.06
2022-09-24T17:10:13.651Z,96179.19
2022-09-24T17:12:43.918Z,96175.34
2022-09-24T17:15:13.008Z,96174.00
2022-09-24T17:17:49.564Z,96165.66
2022-09-24T17:20:19.439Z,96184.41
2022-09-24T17:22:48.609Z,96183.91
2022-09-24T17:25:17.176Z,96190.38
2022-09-24T17:27:45.592Z,96190.84
2022-09-24T17:30:14.830Z,96196.16
2022-09-24T17:32:44.791Z,96196.44
2022-09-24T17:35:13.519Z,96208.22
2022-09-24T17:37:41.860Z,96212.00
2022-09-24T17:40:11.207Z,96212.16
2022-09-24T17:42:45.895Z,96213.16
2022-09-24T17:45:14.371Z,96217.97
2022-09-24T17:48:00.577Z,96226.22
2022-09-24T17:50:30.030Z,96225.53
2022-09-24T17:52:59.345Z,96228.75
2022-09-24T17:55:27.985Z,96225.53
2022-09-24T17:57:56.141Z,96223.19
2022-09-24T18:00:24.386Z,96216.38
2022-09-24T18:02:56.656Z,96219.84
2022-09-24T18:05:25.580Z,96220.84
2022-09-24T18:07:54.090Z,96221.00
2022-09-24T18:10:22.392Z,96217.81
2022-09-24T18:12:50.791Z,96228.44
2022-09-24T18:15:19.039Z,96226.91
2022-09-24T18:17:47.345Z,96223.41
2022-09-24T18:20:17.276Z,96221.78
2022-09-24T18:22:45.549Z,96225.56
2022-09-24T18:25:14.154Z,96233.00
2022-09-24T18:27:45.444Z,96241.97
2022-09-24T18:30:15.650Z,96254.25
2022-09-24T18:32:46.815Z,96254.56
2022-09-24T18:35:16.639Z,96251.91
2022-09-24T18:37:44.858Z,96251.22
2022-09-24T18:40:13.458Z,96259.47
2022-09-24T18:42:41.959Z,96256.13
2022-09-24T18:45:11.085Z,96251.78
2022-09-24T18:47:39.514Z,96254.06
2022-09-24T18:50:09.113Z,96252.41
2022-09-24T18:52:38.923Z,96253.25
2022-09-24T18:55:08.581Z,96250.91
2022-09-24T18:57:37.895Z,96253.00
2022-09-24T19:00:27.438Z,96256.34
2022-09-24T19:02:55.970Z,96263.63
2022-09-24T19:05:24.403Z,96265.56
2022-09-24T19:07:54.339Z,96265.88
2022-09-24T19:10:22.640Z,96265.72
2022-09-24T19:12:53.471Z,96257.91
2022-09-24T19:15:22.058Z,96260.56
2022-09-24T19:17:53.166Z,96260.69
2022-09-24T19:20:21.833Z,96260.69
2022-09-24T19:22:59.717Z,96260.00
2022-09-24T19:25:33.226Z,96261.69
2022-09-24T19:28:03.645Z,96261.00
2022-09-24T19:30:32.055Z,96263.66
2022-09-24T19:33:00.478Z,96249.38
2022-09-24T19:35:29.197Z,96246.91
2022-09-24T19:37:57.452Z,96244.56
2022-09-24T19:40:25.874Z,96244.56
2022-09-24T19:42:56.210Z,96256.13
2022-09-24T19:45:25.674Z,96253.78
2022-09-24T19:47:54.231Z,96249.44
2022-09-24T19:50:22.690Z,96255.75
2022-09-24T19:52:53.174Z,96252.41
2022-09-24T19:55:26.181Z,96246.09
2022-09-24T19:57:58.527Z,96247.94
2022-09-24T20:00:26.702Z,96247.09
2022-09-24T20:02:55.060Z,96244.88
2022-09-24T20:05:23.169Z,96249.38
2022-09-24T20:07:51.327Z,96236.41
2022-09-24T20:10:19.439Z,96241.72
2022-09-24T20:12:51.826Z,96235.72
2022-09-24T20:15:21.802Z,96232.38
2022-09-24T20:17:49.941Z,96233.34
2022-09-24T20:20:18.239Z,96239.78
2022-09-24T20:22:46.320Z,96232.94
2022-09-24T20:25:14.354Z,96226.94
2022-09-24T20:27:53.360Z,96228.38
2022-09-24T20:30:23.863Z,96241.66
2022-09-24T20:32:52.118Z,96243.75
2022-09-24T20:35:21.368Z,96244.88
2022-09-24T20:37:49.505Z,96243.53
2022-09-24T20:40:17.784Z,96237.66
2022-09-24T20:42:46.101Z,96248.28
2022-09-24T20:45:14.285Z,96241.75
2022-09-24T20:47:43.927Z,96239.22
2022-09-24T20:50:12.152Z,96241.47
2022-09-24T20:52:40.321Z,96239.25
2022-09-24T20:55:09.865Z,96237.56
2022-09-24T20:57:38.124Z,96235.78
2022-09-24T21:00:07.944Z,96237.06
2022-09-24T21:02:41.165Z,96235.81
2022-09-24T21:05:11.435Z,96231.63
2022-09-24T21:07:42.881Z,96236.25
2022-09-24T21:10:12.943Z,96234.56
2022-09-24T21:12:41.217Z,96233.88
2022-09-24T21:15:11.384Z,96242.00
2022-09-24T21:17:39.520Z,96237.81
2022-09-24T21:20:10.210Z,96243.13
2022-09-24T21:22:39.887Z,96238.91
2022-09-24T21:25:08.640Z,96241.72
2022-09-24T21:27:37.036Z,96245.19
2022-09-24T21:30:05.894Z,96240.91
2022-09-24T21:32:38.763Z,96243.69
2022-09-24T21:35:07.951Z,96239.19
2022-09-24T21:37:36.129Z,96244.50
2022-09-24T21:40:06.146Z,96249.69
2022-09-24T21:42:34.424Z,96250.50
2022-09-24T21:45:02.571Z,96247.72
2022-09-24T21:47:30.607Z,96252.03
2022-09-24T21:49:59.256Z,96251.34
2022-09-24T21:52:31.022Z,96251.34
2022-09-24T21:54:59.071Z,96248.16
2022-09-24T21:57:28.508Z,96248.69
2022-09-24T22:00:04.428Z,96249.69
2022-09-24T22:02:33.487Z,96245.34
2022-09-24T22:05:01.615Z,96249.81
2022-09-24T22:07:29.692Z,96251.06
2022-09-24T22:09:57.885Z,96249.28
2022-09-24T22:12:26.013Z,96248.28
2022-09-24T22:14:55.460Z,96252.59
2022-09-24T22:17:23.489Z,96249.53
2022-09-24T22:19:51.977Z,96256.66
2022-09-24T22:22:21.355Z,96240.34
2022-09-24T22:24:49.860Z,96246.47
2022-09-24T22:27:18.298Z,96248.44
2022-09-24T22:29:47.037Z,96246.78
2022-09-24T22:32:16.412Z,96252.22
2022-09-24T22:35:01.611Z,96248.72
2022-09-24T22:37:31.098Z,96253.19
2022-09-24T22:39:59.136Z,96249.69
2022-09-24T22:42:27.253Z,96248.03
2022-09-24T22:44:58.634Z,96254.75
2022-09-24T22:47:28.075Z,96253.34
2022-09-24T22:49:56.202Z,96253.47
2022-09-24T22:52:24.293Z,96257.50
2022-09-24T22:54:52.397Z,96262.94
2022-09-24T22:57:20.533Z,96257.41
2022-09-24T22:59:48.675Z,96257.63
2022-09-24T23:02:16.695Z,96257.50
2022-09-24T23:04:46.223Z,96245.94
2022-09-24T23:07:16.445Z,96248.03
2022-09-24T23:09:44.644Z,96254.28
2022-09-24T23:12:12.635Z,96256.94
2022-09-24T23:14:41.396Z,96257.63
2022-09-24T23:17:09.481Z,96257.09
2022-09-24T23:19:49.483Z,96252.91
2022-09-24T23:22:19.500Z,96253.59
2022-09-24T23:24:49.317Z,96248.03
2022-09-24T23:27:20.288Z,96248.72
2022-09-24T23:29:48.849Z,96242.72
2022-09-24T23:32:17.296Z,96252.63
2022-09-24T23:34:46.323Z,96251.81
2022-09-24T23:37:14.415Z,96247.19
2022-09-24T23:39:43.816Z,96238.41
2022-09-24T23:42:11.882Z,96232.97
2022-09-24T23:44:39.923Z,96226.84
2022-09-24T23:47:07.986Z,96225.03
2022-09-24T23:49:36.001Z,96227.53
2022-09-24T23:52:04.099Z,96227.53
2022-09-24T23:54:32.178Z,96237.28
2022-09-24T23:57:02.208Z,96234.78
2022-09-24T23:59:30.304Z,96234.63
